Time;durP1;ratioP1;P1;durP2;ratioP2;P2;SDS_P1;SDS_P2;PMS_P1;PMS_P2;Temp;Humidity;BMP_temperature;BMP_pressure;BME280_temperature;BME280_humidity;BME280_pressure;Samples;Min_cycle;Max_cycle;Signal;HPM_P1;HPM_P2
2022/08/03 00:00:56;;;;;;;;;6.00;6.00;;;;;25.82;49.04;101235.69;6180968;23;47212;-89
2022/08/03 00:03:22;;;;;;;;;4.67;4.00;;;;;25.81;49.06;101247.47;6181613;23;45427;-87
2022/08/03 00:05:47;;;;;;;;;4.75;4.75;;;;;25.79;49.01;101243.97;6182991;23;45388;-89
2022/08/03 00:08:12;;;;;;;;;5.50;5.00;;;;;25.77;49.20;101248.59;6131611;23;45457;-88
2022/08/03 00:10:38;;;;;;;;;3.67;3.00;;;;;25.68;49.67;101232.00;6182923;23;47964;-89
2022/08/03 00:13:03;;;;;;;;;6.00;3.00;;;;;25.74;49.71;101249.63;6157125;23;45523;-88
2022/08/03 00:15:29;;;;;;;;;3.00;3.00;;;;;25.73;49.73;101258.69;6157741;23;45235;-88
2022/08/03 00:17:54;;;;;;;;;2.00;2.00;;;;;25.64;49.36;101232.28;6208761;22;45294;-87
2022/08/03 00:27:03;;;;;;;;;3.00;3.00;;;;;25.60;49.55;101245.06;6153574;23;45448;-81
2022/08/03 00:29:31;;;;;;;;;2.67;2.67;;;;;25.60;50.08;101249.59;6155686;23;45424;-83
2022/08/03 00:31:56;;;;;;;;;3.75;3.00;;;;;25.60;50.20;101250.47;6154210;23;47765;-83
2022/08/03 00:34:22;;;;;;;;;4.00;4.00;;;;;25.57;50.29;101244.38;6180020;23;45466;-83
2022/08/03 00:36:49;;;;;;;;;5.33;3.00;;;;;25.55;50.56;101249.00;6154260;23;45343;-83
2022/08/03 00:39:15;;;;;;;;;2.67;2.33;;;;;25.50;50.13;101244.75;6204591;22;45538;-83
2022/08/03 00:41:41;;;;;;;;;3.33;3.33;;;;;25.45;50.04;101246.84;6201129;22;47707;-83
2022/08/03 00:44:11;;;;;;;;;2.00;2.00;;;;;25.48;50.10;101248.50;6127376;23;45541;-83
2022/08/03 00:46:37;;;;;;;;;3.00;1.33;;;;;25.39;50.12;101243.63;6152523;23;45474;-83
2022/08/03 00:49:02;;;;;;;;;2.67;2.00;;;;;25.35;50.20;101232.16;6154799;23;45387;-82
2022/08/03 00:51:28;;;;;;;;;2.33;2.33;;;;;25.34;49.79;101237.63;6152088;23;48265;-83
2022/08/03 00:53:53;;;;;;;;;3.00;3.00;;;;;25.29;50.62;101232.53;6154954;23;45362;-82
2022/08/03 00:56:19;;;;;;;;;2.67;2.67;;;;;25.29;50.60;101235.22;6179856;23;45225;-82
2022/08/03 00:58:45;;;;;;;;;2.00;2.00;;;;;25.30;49.84;101228.84;6180243;23;45211;-82
2022/08/03 01:01:11;;;;;;;;;3.00;3.00;;;;;25.24;50.11;101226.53;6130095;23;46623;-82
2022/08/03 01:03:37;;;;;;;;;3.00;1.67;;;;;25.22;49.50;101226.59;6156489;23;45280;-82
2022/08/03 01:06:35;;;;;;;;;3.33;2.33;;;;;25.19;49.52;101228.59;6156657;23;45102;-84
2022/08/03 01:13:24;;;;;;;;;2.00;2.00;;;;;25.11;49.62;101226.31;6156703;23;45289;-82
2022/08/03 01:16:01;;;;;;;;;2.00;1.67;;;;;25.08;49.73;101221.97;6065335;23;45420;-84
2022/08/03 01:18:45;;;;;;;;;2.00;2.00;;;;;25.06;49.82;101220.31;6090025;23;45333;-84
2022/08/03 01:21:22;;;;;;;;;1.00;1.00;;;;;25.00;49.41;101212.59;6183265;22;45371;-83
2022/08/03 01:23:54;;;;;;;;;2.00;1.00;;;;;24.93;50.07;101208.50;6129947;23;47828;-85
2022/08/03 01:26:41;;;;;;;;;2.00;2.00;;;;;24.96;49.86;101214.56;6154579;23;45387;-84
2022/08/03 01:29:39;;;;;;;;;2.00;2.00;;;;;24.91;50.00;101208.56;6129378;23;45475;-84
2022/08/03 01:32:12;;;;;;;;;2.67;2.67;;;;;24.91;50.15;101213.09;6156925;23;45178;-84
2022/08/03 01:34:47;;;;;;;;;2.00;2.00;;;;;24.83;49.84;101209.03;6179696;23;47391;-84
2022/08/03 01:37:17;;;;;;;;;2.33;2.33;;;;;24.78;50.38;101211.09;6153909;23;45786;-85
2022/08/03 01:39:44;;;;;;;;;2.33;2.33;;;;;24.76;50.70;101206.75;6179269;23;45277;-84
2022/08/03 01:42:10;;;;;;;;;1.67;1.67;;;;;24.74;50.38;101206.81;6188455;22;45401;-84
2022/08/03 01:44:41;;;;;;;;;3.33;2.00;;;;;24.74;50.72;101204.13;6240401;22;47144;-84
2022/08/03 01:47:11;;;;;;;;;2.00;1.00;;;;;24.65;50.53;101194.75;6214640;22;45241;-84
2022/08/03 01:49:39;;;;;;;;;1.00;1.00;;;;;24.61;50.67;101195.00;6215087;22;45281;-84
2022/08/03 01:52:07;;;;;;;;;1.67;1.67;;;;;24.63;50.64;101201.19;6216285;22;45466;-84
2022/08/03 01:54:42;;;;;;;;;2.00;2.00;;;;;24.51;49.98;101183.88;6216746;22;45304;-84
2022/08/03 01:57:09;;;;;;;;;2.33;2.00;;;;;24.60;50.12;101204.03;6189679;22;45376;-84
2022/08/03 01:59:39;;;;;;;;;0.00;0.00;;;;;24.51;50.05;101191.97;6216858;22;45347;-84
2022/08/03 02:02:10;;;;;;;;;2.00;1.00;;;;;24.54;50.41;101196.28;6190281;22;45461;-82
2022/08/03 02:04:37;;;;;;;;;1.00;1.00;;;;;24.50;50.48;101192.91;6190483;22;46898;-84
2022/08/03 02:07:05;;;;;;;;;2.00;2.00;;;;;24.46;50.03;101185.97;6217588;22;45316;-84
2022/08/03 02:09:33;;;;;;;;;1.00;1.00;;;;;24.40;49.96;101186.25;6217676;22;45174;-84
2022/08/03 02:12:09;;;;;;;;;2.00;2.00;;;;;24.42;50.36;101205.88;6219038;22;45414;-83
2022/08/03 02:14:38;;;;;;;;;3.00;2.33;;;;;24.36;50.45;101192.75;6220501;22;46242;-84
2022/08/03 02:17:06;;;;;;;;;0.33;0.00;;;;;24.35;50.51;101194.59;6220132;22;45260;-84
2022/08/03 02:19:33;;;;;;;;;1.00;1.00;;;;;24.36;50.87;101190.94;6220454;22;45181;-84
2022/08/03 02:22:10;;;;;;;;;1.00;1.00;;;;;24.28;50.78;101176.16;6192423;22;45413;-84
2022/08/03 02:24:38;;;;;;;;;1.33;1.33;;;;;24.29;50.78;101188.66;6216469;22;48012;-84
2022/08/03 02:27:25;;;;;;;;;2.00;2.00;;;;;24.32;50.77;101191.16;6214512;22;45304;-85
2022/08/03 02:30:00;;;;;;;;;2.00;2.00;;;;;24.29;51.28;101189.50;6214610;22;45213;-85
2022/08/03 02:32:31;;;;;;;;;2.00;2.00;;;;;24.18;50.83;101182.00;6189006;22;45659;-85
2022/08/03 02:35:01;;;;;;;;;2.00;2.00;;;;;24.16;51.00;101178.56;6216409;22;45642;-85
2022/08/03 02:37:31;;;;;;;;;2.33;1.00;;;;;24.14;50.97;101182.28;6216127;22;45223;-84
2022/08/03 02:40:01;;;;;;;;;3.00;2.00;;;;;24.14;51.07;101190.34;6187998;22;45431;-84
2022/08/03 02:42:29;;;;;;;;;3.00;1.33;;;;;24.07;51.21;101183.56;6217753;22;45392;-84
2022/08/03 02:45:01;;;;;;;;;2.00;2.00;;;;;24.13;51.33;101194.84;6216047;22;46939;-84
2022/08/03 02:47:40;;;;;;;;;1.00;1.00;;;;;24.05;51.52;101174.69;6217808;22;45248;-84
2022/08/03 02:50:08;;;;;;;;;1.67;1.67;;;;;24.04;51.39;101175.66;6215681;22;45428;-84
2022/08/03 02:52:35;;;;;;;;;1.33;1.33;;;;;24.05;51.03;101174.69;6190000;22;46217;-84
2022/08/03 02:55:03;;;;;;;;;2.00;2.00;;;;;24.03;51.36;101176.59;6215559;22;47078;-84
2022/08/03 02:57:32;;;;;;;;;2.33;2.33;;;;;24.03;51.32;101185.56;6217568;22;45378;-84
2022/08/03 03:00:00;;;;;;;;;1.33;1.00;;;;;23.93;51.38;101165.47;6217437;22;45379;-83
2022/08/03 03:02:30;;;;;;;;;2.00;2.00;;;;;23.93;51.19;101173.53;6215511;22;45321;-83
2022/08/03 03:04:58;;;;;;;;;1.33;1.33;;;;;23.97;51.62;101184.03;6189969;22;48208;-84
2022/08/03 03:07:27;;;;;;;;;2.00;2.00;;;;;23.92;51.60;101179.84;6215373;22;45637;-84
2022/08/03 03:09:53;;;;;;;;;2.33;1.00;;;;;23.84;51.95;101164.09;6217861;22;45144;-84
2022/08/03 03:12:19;;;;;;;;;1.00;1.00;;;;;23.83;51.49;101166.88;6215560;22;45314;-84
2022/08/03 03:14:45;;;;;;;;;2.00;2.00;;;;;23.88;51.79;101181.84;6190279;22;47727;-84
2022/08/03 03:17:16;;;;;;;;;3.67;1.00;;;;;23.87;51.78;101172.03;6215526;22;45360;-84
2022/08/03 03:19:43;;;;;;;;;2.33;1.00;;;;;23.82;52.08;101173.19;6190325;22;45222;-84
2022/08/03 03:22:13;;;;;;;;;1.00;1.00;;;;;23.75;51.98;101156.53;6216884;22;45367;-83
2022/08/03 03:24:41;;;;;;;;;1.67;1.00;;;;;23.74;52.13;101157.50;6214796;22;47193;-84
2022/08/03 03:27:08;;;;;;;;;1.00;1.00;;;;;23.69;52.08;101157.69;6217415;22;45269;-84
2022/08/03 03:30:22;;;;;;;;;;;;;;;;;;;;;
2022/08/03 03:32:48;;;;;;;;;1.00;1.00;;;;;23.74;52.39;101160.19;6123822;23;72955;-84
2022/08/03 03:35:24;;;;;;;;;;;;;;;;;;;;;
2022/08/03 03:37:51;;;;;;;;;1.33;1.00;;;;;23.68;52.52;101152.38;6216156;22;72399;-84
2022/08/03 03:40:16;;;;;;;;;3.00;3.00;;;;;23.74;52.24;101157.50;6189879;22;45322;-84
2022/08/03 03:42:42;;;;;;;;;1.00;1.00;;;;;23.71;52.42;101160.28;6215437;22;45494;-84
2022/08/03 03:45:14;;;;;;;;;2.00;2.00;;;;;23.67;52.36;101156.03;6240953;22;46992;-84
2022/08/03 03:47:40;;;;;;;;;2.00;2.00;;;;;23.63;52.26;101149.94;6215531;22;45437;-84
2022/08/03 03:50:06;;;;;;;;;1.67;1.67;;;;;23.67;52.36;101156.91;6190581;22;45357;-84
2022/08/03 03:52:45;;;;;;;;;;;;;;;;;;;;;
2022/08/03 03:55:25;;;;;;;;;;;;;;;;;;;;;
2022/08/03 03:58:01;;;;;;;;;1.33;1.33;;;;;23.55;52.39;101150.34;6216300;22;72946;-84
2022/08/03 04:00:32;;;;;;;;;2.67;2.67;;;;;23.47;52.14;101149.88;6217869;22;45398;-84
2022/08/03 04:03:03;;;;;;;;;1.00;1.00;;;;;23.51;52.62;101155.94;6217556;22;45432;-84
2022/08/03 04:11:18;;;;;;;;;0.67;0.67;;;;;23.39;52.89;101157.47;6217647;22;45251;-85
2022/08/03 04:13:59;;;;;;;;;4.75;3.00;;;;;23.36;52.94;101156.72;6217462;22;45125;-84
2022/08/03 04:16:36;;;;;;;;;4.00;2.33;;;;;23.35;52.89;101158.53;6217707;22;45435;-84
2022/08/03 04:19:07;;;;;;;;;1.00;1.00;;;;;23.33;52.90;101168.50;6217429;22;45265;-84
2022/08/03 04:21:39;;;;;;;;;1.00;1.00;;;;;23.31;52.38;101160.53;6240658;22;45109;-84
2022/08/03 04:24:09;;;;;;;;;1.33;1.33;;;;;23.39;52.54;101167.31;6215472;22;45185;-84
2022/08/03 04:26:38;;;;;;;;;2.00;2.00;;;;;23.32;53.02;101148.81;6217375;22;46135;-84
2022/08/03 04:29:05;;;;;;;;;5.00;3.00;;;;;23.30;53.09;101152.53;6214560;22;45229;-84
2022/08/03 04:31:31;;;;;;;;;3.00;1.00;;;;;23.37;52.90;101155.78;6215242;22;45237;-85
2022/08/03 04:33:57;;;;;;;;;5.00;4.00;;;;;23.36;52.93;101159.41;6217272;22;45230;-84
2022/08/03 04:36:25;;;;;;;;;2.00;2.00;;;;;23.41;52.88;101160.06;6215017;22;47074;-84
2022/08/03 04:39:03;;;;;;;;;2.00;2.00;;;;;23.40;53.08;101159.19;6215464;22;45316;-84
2022/08/03 04:41:32;;;;;;;;;3.33;2.00;;;;;23.43;52.67;101172.47;6215190;22;45380;-84
2022/08/03 04:43:59;;;;;;;;;2.00;2.00;;;;;23.40;53.20;101161.00;6217312;22;45379;-84
2022/08/03 04:46:30;;;;;;;;;3.75;3.75;;;;;23.39;53.28;101157.47;6217409;22;46191;-84
2022/08/03 04:48:59;;;;;;;;;3.00;2.00;;;;;23.44;53.37;101168.84;6217289;22;45261;-84
2022/08/03 04:51:47;;;;;;;;;;;;;;;;;;;;;
2022/08/03 04:54:15;;;;;;;;;2.67;2.00;;;;;23.40;53.25;101148.44;6216155;22;71393;-84
2022/08/03 04:56:42;;;;;;;;;3.00;3.00;;;;;23.36;53.40;101149.53;6189434;22;46014;-84
2022/08/03 04:59:11;;;;;;;;;4.00;3.00;;;;;23.39;53.55;101153.88;6215202;22;45312;-84
2022/08/03 05:01:40;;;;;;;;;3.00;2.00;;;;;23.42;53.31;101165.34;6190081;22;45396;-84
2022/08/03 05:04:05;;;;;;;;;2.00;2.00;;;;;23.43;53.44;101164.41;6188465;22;45616;-84
2022/08/03 05:06:36;;;;;;;;;3.00;2.00;;;;;23.37;53.42;101150.41;6214631;22;48153;-84
2022/08/03 05:09:04;;;;;;;;;2.00;2.00;;;;;23.39;53.09;101161.94;6215175;22;45387;-84
2022/08/03 05:11:37;;;;;;;;;5.33;2.67;;;;;23.38;53.29;101155.69;6215481;22;45184;-85
2022/08/03 05:14:35;;;;;;;;;;;;;;;;;;;;;
2022/08/03 05:17:37;;;;;;;;;2.00;2.00;;;;;23.41;53.48;101163.59;6215689;22;74452;-85
2022/08/03 05:20:04;;;;;;;;;4.00;3.00;;;;;23.46;53.63;101164.25;6214862;22;45571;-81
2022/08/03 05:22:29;;;;;;;;;3.67;2.33;;;;;23.51;53.63;101169.38;6214654;22;45366;-79
2022/08/03 05:24:55;;;;;;;;;4.67;3.00;;;;;23.52;53.36;101169.31;6189761;22;45304;-79
2022/08/03 05:27:20;;;;;;;;;3.00;3.00;;;;;23.56;53.62;101172.72;6215195;22;48265;-79
2022/08/03 05:29:47;;;;;;;;;5.00;4.00;;;;;23.55;53.86;101158.41;6217003;22;45198;-79
2022/08/03 05:32:13;;;;;;;;;2.00;1.00;;;;;23.58;53.75;101164.59;6217497;22;45219;-78
2022/08/03 05:34:39;;;;;;;;;3.00;3.00;;;;;23.63;53.47;101171.47;6240517;22;45350;-79
2022/08/03 05:37:06;;;;;;;;;3.00;2.00;;;;;23.61;53.75;101159.91;6216632;22;46611;-79
2022/08/03 05:39:31;;;;;;;;;3.33;3.33;;;;;23.74;53.54;101184.38;6215006;22;46101;-79
2022/08/03 05:41:56;;;;;;;;;2.67;2.67;;;;;23.75;53.29;101173.53;6214599;22;45427;-80
2022/08/03 05:44:24;;;;;;;;;2.33;2.33;;;;;23.77;53.39;101181.53;6217006;22;45371;-79
2022/08/03 05:46:49;;;;;;;;;3.33;3.00;;;;;23.79;53.48;101176.94;6214958;22;47089;-79
2022/08/03 05:49:15;;;;;;;;;4.75;4.75;;;;;23.83;53.38;101177.66;6216883;22;45190;-79
2022/08/03 05:51:40;;;;;;;;;5.67;4.33;;;;;23.87;52.93;101176.53;6189292;22;45107;-79
2022/08/03 05:54:08;;;;;;;;;6.67;5.00;;;;;23.90;53.20;101176.38;6214801;22;45614;-79
2022/08/03 05:56:34;;;;;;;;;3.67;3.67;;;;;23.95;52.90;101180.56;6216740;22;45481;-79
2022/08/03 05:58:59;;;;;;;;;6.00;6.00;;;;;23.98;52.83;101179.53;6214678;22;45355;-79
2022/08/03 06:01:24;;;;;;;;;6.00;6.00;;;;;23.96;53.23;101185.00;6217000;22;45357;-80
2022/08/03 06:03:51;;;;;;;;;4.75;3.75;;;;;24.03;53.00;101188.25;6216706;22;45395;-79
2022/08/03 06:06:16;;;;;;;;;4.25;4.25;;;;;24.07;52.75;101191.63;6214191;22;48004;-78
2022/08/03 06:08:43;;;;;;;;;4.25;4.25;;;;;24.06;53.08;101179.09;6189309;22;45414;-79
2022/08/03 06:11:09;;;;;;;;;4.75;3.25;;;;;24.15;52.71;101184.88;6216841;22;45249;-78
2022/08/03 06:13:35;;;;;;;;;6.25;6.25;;;;;24.19;52.35;101188.25;6216705;22;45248;-78
2022/08/03 06:16:01;;;;;;;;;7.50;6.50;;;;;24.25;52.42;101196.03;6190523;22;47057;-77
2022/08/03 06:18:27;;;;;;;;;8.25;8.00;;;;;24.25;52.87;101182.56;6217611;22;45206;-77
2022/08/03 06:20:53;;;;;;;;;8.00;7.50;;;;;24.28;52.87;101184.22;6190461;22;45392;-78
2022/08/03 06:23:19;;;;;;;;;10.00;8.00;;;;;24.34;52.53;101194.66;6190604;22;45583;-78
2022/08/03 06:25:45;;;;;;;;;9.00;8.00;;;;;24.39;52.77;101196.13;6217911;22;45396;-79
2022/08/03 06:28:12;;;;;;;;;10.00;9.25;;;;;24.43;52.42;101189.66;6215721;22;45494;-79
2022/08/03 06:30:38;;;;;;;;;8.75;6.00;;;;;24.43;52.67;101183.38;6241642;22;45303;-79
2022/08/03 06:33:03;;;;;;;;;8.25;8.25;;;;;24.55;51.86;101196.22;6217842;22;45300;-80
2022/08/03 06:35:29;;;;;;;;;7.75;7.50;;;;;24.54;52.27;101183.72;6217600;22;46462;-80
2022/08/03 06:37:54;;;;;;;;;5.75;5.75;;;;;24.63;52.25;101196.66;6217793;22;45213;-80
2022/08/03 06:40:30;;;;;;;;;5.33;5.33;;;;;24.65;51.72;101188.50;6217943;22;45303;-81
2022/08/03 06:42:57;;;;;;;;;6.00;6.00;;;;;24.71;51.94;101189.97;6215453;22;45168;-80
2022/08/03 06:45:22;;;;;;;;;7.67;7.33;;;;;24.77;51.85;101186.94;6217821;22;45226;-81
2022/08/03 06:48:00;;;;;;;;;8.67;5.00;;;;;24.80;51.57;101184.06;6215907;22;45178;-78
2022/08/03 06:50:25;;;;;;;;;7.50;5.00;;;;;24.85;51.21;101193.63;6218203;22;45356;-79
2022/08/03 06:52:51;;;;;;;;;8.00;6.00;;;;;24.89;51.69;101180.88;6215660;22;45417;-79
2022/08/03 06:55:19;;;;;;;;;5.25;4.75;;;;;24.94;51.65;101176.09;6217686;22;45368;-82
2022/08/03 06:57:44;;;;;;;;;5.00;5.00;;;;;25.02;51.10;101184.59;6190271;22;45167;-86
2022/08/03 07:00:10;;;;;;;;;7.33;5.00;;;;;25.06;50.98;101185.28;6217794;22;45633;-78
2022/08/03 07:02:36;;;;;;;;;5.75;5.75;;;;;25.13;51.44;101188.47;6216018;22;45427;-79
2022/08/03 07:05:02;;;;;;;;;6.00;6.00;;;;;25.16;51.05;101183.84;6217724;22;46198;-79
2022/08/03 07:07:28;;;;;;;;;6.75;6.75;;;;;25.23;50.73;101187.03;6215337;22;45290;-80
2022/08/03 07:09:53;;;;;;;;;7.50;6.50;;;;;25.31;50.92;101192.84;6215839;22;45213;-81
2022/08/03 07:12:18;;;;;;;;;5.25;5.25;;;;;25.35;50.39;101182.78;6190532;22;45963;-82
2022/08/03 07:14:44;;;;;;;;;8.75;7.75;;;;;25.37;50.64;101184.41;6217719;22;45402;-82
2022/08/03 07:17:09;;;;;;;;;5.00;4.00;;;;;25.49;50.23;101199.00;6215791;22;45396;-83
2022/08/03 07:19:34;;;;;;;;;4.00;4.00;;;;;25.53;50.05;101189.78;6241225;22;45339;-82
2022/08/03 07:22:02;;;;;;;;;7.50;6.00;;;;;25.59;50.15;101194.78;6217333;22;45404;-81
2022/08/03 07:24:27;;;;;;;;;7.75;7.75;;;;;25.67;49.94;101186.25;6215227;22;48054;-79
2022/08/03 07:26:53;;;;;;;;;7.00;6.00;;;;;25.72;50.16;101176.91;6216867;22;45375;-79
2022/08/03 07:29:18;;;;;;;;;10.25;8.50;;;;;25.79;50.20;101180.09;6217964;22;45941;-80
2022/08/03 07:31:53;;;;;;;;;6.75;4.00;;;;;25.89;49.57;101186.72;6215721;22;45297;-84
2022/08/03 07:34:49;;;;;;;;;;;;;;;;;;;;;
2022/08/03 07:37:21;;;;;;;;;5.25;4.50;;;;;26.08;48.54;101193.69;6206548;22;72667;-84
2022/08/03 07:39:47;;;;;;;;;7.50;7.50;;;;;26.14;48.85;101194.19;6217679;22;45424;-80
2022/08/03 07:42:13;;;;;;;;;5.00;5.00;;;;;26.20;48.41;101178.56;6216734;22;45311;-81
2022/08/03 07:44:40;;;;;;;;;6.75;5.25;;;;;26.28;48.68;101185.22;6215158;22;47113;-84
2022/08/03 07:47:06;;;;;;;;;8.67;7.00;;;;;26.29;48.22;101183.38;6217357;22;45241;-81
2022/08/03 07:49:31;;;;;;;;;5.00;5.00;;;;;26.37;47.98;101187.34;6217512;22;45177;-81
2022/08/03 07:54:41;;;;;;;;;6.75;6.75;;;;;26.52;47.52;101182.84;6217172;22;45548;-80
2022/08/03 07:57:07;;;;;;;;;6.25;6.25;;;;;26.59;47.59;101188.72;6215073;22;45123;-82
2022/08/03 07:59:34;;;;;;;;;5.00;4.67;;;;;26.65;47.46;101174.81;6217693;22;45174;-81
2022/08/03 08:01:59;;;;;;;;;8.25;7.00;;;;;26.75;47.38;101184.06;6190138;22;45589;-82
2022/08/03 08:04:27;;;;;;;;;5.50;5.00;;;;;26.80;47.04;101179.22;6217557;22;45355;-82
2022/08/03 08:06:52;;;;;;;;;7.50;7.25;;;;;26.95;46.70;101185.47;6189513;22;45760;-80
2022/08/03 08:09:18;;;;;;;;;9.00;7.25;;;;;27.09;46.63;101181.00;6215712;22;45472;-80
2022/08/03 08:11:43;;;;;;;;;7.50;7.50;;;;;27.20;45.99;101190.16;6215210;22;45231;-79
2022/08/03 08:14:09;;;;;;;;;6.00;6.00;;;;;27.29;45.64;101185.94;6190210;22;46473;-80
2022/08/03 08:16:34;;;;;;;;;4.67;3.00;;;;;27.38;45.52;101184.50;6217439;22;45155;-80
2022/08/03 08:19:00;;;;;;;;;8.75;6.00;;;;;27.48;45.50;101185.59;6215133;22;45189;-80
2022/08/03 08:21:26;;;;;;;;;6.33;6.00;;;;;27.59;45.05;101177.63;6189289;22;45337;-80
2022/08/03 08:23:51;;;;;;;;;10.50;7.00;;;;;27.75;45.26;101185.56;6217153;22;45384;-82
2022/08/03 08:26:20;;;;;;;;;7.33;6.00;;;;;27.82;44.59;101175.19;6215030;22;45335;-84
2022/08/03 08:28:45;;;;;;;;;5.00;5.00;;;;;27.88;44.11;101180.16;6214478;22;45529;-83
2022/08/03 08:31:11;;;;;;;;;5.00;4.67;;;;;28.01;44.06;101180.19;6214170;22;45705;-83
2022/08/03 08:33:36;;;;;;;;;7.50;6.25;;;;;28.08;43.80;101178.78;6214199;22;47465;-82
2022/08/03 08:36:02;;;;;;;;;8.75;6.50;;;;;28.18;43.79;101171.75;6216682;22;45376;-83
2022/08/03 08:38:28;;;;;;;;;6.33;5.00;;;;;28.28;43.27;101163.81;6217039;22;45366;-82
2022/08/03 08:40:56;;;;;;;;;8.50;6.00;;;;;28.38;43.10;101164.91;6214431;22;45360;-82
2022/08/03 08:43:21;;;;;;;;;5.33;5.33;;;;;28.52;42.81;101161.22;6214767;22;47494;-82
2022/08/03 08:45:49;;;;;;;;;5.00;4.00;;;;;28.63;41.83;101169.47;6214664;22;45241;-83
2022/08/03 08:48:21;;;;;;;;;6.67;3.67;;;;;28.72;41.71;101165.19;6217136;22;45415;-82
2022/08/03 08:50:48;;;;;;;;;5.67;4.67;;;;;28.87;41.56;101168.59;6216513;22;45157;-82
2022/08/03 08:53:19;;;;;;;;;4.67;4.67;;;;;28.97;41.16;101165.09;6214670;22;46653;-83
2022/08/03 08:55:49;;;;;;;;;8.33;6.33;;;;;29.03;41.24;101155.66;6217176;22;45169;-82
2022/08/03 08:58:20;;;;;;;;;5.00;3.67;;;;;29.19;41.11;101161.69;6214714;22;45443;-82
2022/08/03 09:00:53;;;;;;;;;5.00;4.00;;;;;29.28;40.75;101157.41;6215178;22;45214;-84
2022/08/03 09:03:19;;;;;;;;;3.00;3.00;;;;;29.39;40.18;101153.88;6189496;22;48007;-83
2022/08/03 09:05:50;;;;;;;;;5.00;4.00;;;;;29.51;39.99;101154.78;6217048;22;45273;-85
2022/08/03 09:08:21;;;;;;;;;4.00;4.00;;;;;29.56;39.50;101153.44;6215163;22;45459;-86
2022/08/03 09:10:49;;;;;;;;;6.33;5.00;;;;;29.65;39.48;101160.06;6217472;22;45171;-85
2022/08/03 09:13:15;;;;;;;;;6.33;5.67;;;;;29.72;39.45;101155.00;6189336;22;47271;-83
2022/08/03 09:15:51;;;;;;;;;3.33;3.33;;;;;29.75;39.04;101146.63;6240326;22;45405;-85
2022/08/03 09:18:29;;;;;;;;;6.33;5.33;;;;;29.76;38.42;101148.38;6217765;22;45346;-86
2022/08/03 09:21:31;;;;;;;;;4.00;3.67;;;;;29.81;38.23;101149.72;6241273;22;45883;-87
2022/08/03 09:24:42;;;;;;;;;3.25;3.25;;;;;29.87;38.88;101160.09;6189972;22;46726;-86
2022/08/03 09:27:23;;;;;;;;;;;;;;;;;;;;;
2022/08/03 09:29:51;;;;;;;;;2.33;2.00;;;;;29.98;38.06;101144.81;6215995;22;67362;-86
2022/08/03 09:32:25;;;;;;;;;3.00;3.00;;;;;30.04;37.83;101147.03;6190306;22;45780;-87
2022/08/03 09:35:33;;;;;;;;;4.67;4.67;;;;;30.10;38.27;101143.84;6187896;22;47240;-85
2022/08/03 09:38:39;;;;;;;;;2.67;2.67;;;;;30.22;37.26;101148.28;6172522;22;45462;-85
2022/08/03 09:41:25;;;;;;;;;3.33;3.33;;;;;30.31;37.49;101152.13;6218009;22;45379;-85
2022/08/03 09:43:55;;;;;;;;;2.00;2.00;;;;;30.37;37.58;101137.19;6191114;22;45539;-86
2022/08/03 09:46:33;;;;;;;;;;;;;;;;;;;;;
2022/08/03 09:49:22;;;;;;;;;3.00;3.00;;;;;30.53;36.75;101141.28;6219184;22;71342;-86
2022/08/03 09:51:48;;;;;;;;;4.25;3.75;;;;;30.58;36.57;101135.47;6230537;22;45475;-86
2022/08/03 09:54:33;;;;;;;;;3.00;3.00;;;;;30.63;36.73;101145.94;6230142;22;45194;-85
2022/08/03 09:57:47;;;;;;;;;;;;;;;;;;;;;
2022/08/03 10:00:15;;;;;;;;;6.00;5.00;;;;;30.66;36.07;101115.78;6221664;22;73037;-84
2022/08/03 10:02:42;;;;;;;;;3.67;2.33;;;;;30.79;35.83;101127.38;6222052;22;45207;-85
2022/08/03 10:05:09;;;;;;;;;3.67;3.00;;;;;30.89;35.55;101127.50;6193237;22;45601;-83
2022/08/03 10:07:49;;;;;;;;;6.00;6.00;;;;;30.98;35.77;101129.44;6189988;22;47206;-82
2022/08/03 10:10:16;;;;;;;;;3.00;2.67;;;;;31.02;35.35;101127.34;6216964;22;45249;-89
2022/08/03 10:12:42;;;;;;;;;2.33;2.33;;;;;31.06;35.52;101110.66;6189251;22;45130;-85
2022/08/03 10:15:09;;;;;;;;;2.00;2.00;;;;;31.16;35.51;101117.00;6216116;22;45158;-84
2022/08/03 10:17:36;;;;;;;;;4.33;3.00;;;;;31.27;35.03;101105.22;6217091;22;45385;-84
2022/08/03 10:20:05;;;;;;;;;4.50;3.75;;;;;31.40;34.92;101116.81;6216885;22;45300;-84
2022/08/03 10:22:33;;;;;;;;;3.00;3.00;;;;;31.53;34.72;101108.47;6214194;22;45196;-85
2022/08/03 10:25:05;;;;;;;;;3.00;3.00;;;;;31.70;34.44;101109.69;6189088;22;45575;-85
2022/08/03 10:27:37;;;;;;;;;4.33;3.33;;;;;31.80;34.10;101110.63;6213986;22;48648;-84
2022/08/03 10:30:09;;;;;;;;;2.00;2.00;;;;;31.93;33.50;101109.59;6189035;22;45333;-85
2022/08/03 10:32:47;;;;;;;;;2.33;2.33;;;;;32.06;33.42;101099.34;6189879;22;45318;-84
2022/08/03 10:35:15;;;;;;;;;2.67;2.33;;;;;32.23;33.53;101098.69;6216496;22;45304;-85
2022/08/03 10:37:48;;;;;;;;;1.67;1.67;;;;;32.41;32.46;101101.63;6214442;22;46106;-86
2022/08/03 10:40:18;;;;;;;;;2.00;2.00;;;;;32.55;32.63;101094.94;6223894;22;45252;-92
2022/08/03 10:42:45;;;;;;;;;1.00;1.00;;;;;32.69;32.07;101088.22;6193734;22;45325;-88
2022/08/03 10:45:25;;;;;;;;;3.00;3.00;;;;;32.83;32.03;101081.50;6193118;22;45329;-90
2022/08/03 10:47:51;;;;;;;;;4.00;4.00;;;;;33.00;31.95;101085.38;6190019;22;47998;-84
2022/08/03 10:50:21;;;;;;;;;3.33;3.33;;;;;33.14;31.89;101084.97;6213959;22;45201;-85
2022/08/03 10:53:07;;;;;;;;;4.00;4.00;;;;;33.36;31.77;101072.88;6188763;22;45304;-83
2022/08/03 10:58:39;;;;;;;;;2.00;2.00;;;;;33.75;30.54;101075.56;6216196;22;45221;-85
2022/08/03 11:01:10;;;;;;;;;3.00;3.00;;;;;33.81;30.53;101073.13;6215335;22;45212;-85
2022/08/03 11:03:51;;;;;;;;;4.00;2.67;;;;;33.90;30.23;101076.81;6216705;22;45221;-90
2022/08/03 11:06:19;;;;;;;;;4.00;2.00;;;;;33.96;30.05;101064.44;6215834;22;45931;-87
2022/08/03 11:09:11;;;;;;;;;3.00;3.00;;;;;34.11;29.49;101073.00;6219764;22;48246;-87
2022/08/03 11:12:30;;;;;;;;;2.00;2.00;;;;;34.23;29.83;101072.66;6194925;22;45182;-88
2022/08/03 11:15:37;;;;;;;;;1.33;1.00;;;;;34.30;29.71;101066.59;6062100;23;46050;-87
2022/08/03 11:18:26;;;;;;;;;3.00;3.00;;;;;34.41;29.34;101059.03;6129769;23;45323;-87
2022/08/03 11:20:54;;;;;;;;;1.67;1.67;;;;;34.51;29.29;101059.00;6114828;23;47307;-87
2022/08/03 11:23:59;;;;;;;;;3.00;2.00;;;;;34.62;28.98;101052.47;6104269;23;45506;-87
2022/08/03 11:26:28;;;;;;;;;3.00;3.00;;;;;34.73;28.33;101052.25;6163663;22;45375;-87
2022/08/03 11:29:27;;;;;;;;;2.67;2.67;;;;;34.80;28.38;101052.47;6219044;22;45512;-87
2022/08/03 11:31:52;;;;;;;;;2.33;2.33;;;;;34.95;28.59;101039.97;6194191;22;47881;-84
2022/08/03 11:34:18;;;;;;;;;1.67;1.67;;;;;35.10;28.31;101037.56;6219806;22;45198;-87
2022/08/03 11:37:25;;;;;;;;;2.00;2.00;;;;;35.35;27.81;101035.88;6193540;22;45476;-90
2022/08/03 11:39:53;;;;;;;;;2.00;2.00;;;;;35.55;27.34;101037.38;6216839;22;45416;-87
2022/08/03 11:42:25;;;;;;;;;3.00;3.00;;;;;35.66;27.40;101035.41;6155637;23;46984;-85
2022/08/03 11:44:53;;;;;;;;;2.00;2.00;;;;;35.71;27.46;101027.56;6155354;23;45710;-88
2022/08/03 11:47:23;;;;;;;;;3.00;3.00;;;;;35.85;27.30;101023.34;6155829;23;45308;-88
2022/08/03 11:49:50;;;;;;;;;2.33;2.00;;;;;35.99;26.88;101029.06;6155324;23;45402;-84
2022/08/03 11:52:16;;;;;;;;;2.67;2.33;;;;;36.12;26.69;101030.53;6156271;23;45413;-84
2022/08/03 11:54:45;;;;;;;;;5.67;2.67;;;;;36.11;26.95;101026.06;6179475;23;45686;-84
2022/08/03 11:57:11;;;;;;;;;2.00;2.00;;;;;36.00;26.93;101022.56;6157051;23;45365;-83
2022/08/03 11:59:37;;;;;;;;;3.25;3.00;;;;;36.01;26.42;101023.44;6156099;23;45182;-82
2022/08/03 12:02:10;;;;;;;;;2.67;2.33;;;;;35.97;26.15;101028.38;6179516;23;48374;-82
2022/08/03 12:04:57;;;;;;;;;2.00;2.00;;;;;35.90;25.80;101020.97;6155317;23;45360;-83
2022/08/03 12:07:23;;;;;;;;;3.67;3.00;;;;;35.87;26.33;101026.78;6154357;23;45311;-83
2022/08/03 12:10:10;;;;;;;;;3.00;3.00;;;;;35.84;26.20;101018.88;6205252;22;45459;-83
2022/08/03 12:12:37;;;;;;;;;3.00;2.00;;;;;35.92;26.14;101010.69;6179649;23;45543;-82
2022/08/03 12:15:06;;;;;;;;;2.75;2.50;;;;;36.04;26.01;101012.13;6153973;23;45722;-82
2022/08/03 12:17:36;;;;;;;;;4.50;3.25;;;;;36.16;25.63;101019.03;6179167;23;45291;-83
2022/08/03 12:20:04;;;;;;;;;3.00;3.00;;;;;36.22;25.72;101021.16;6156663;23;45297;-84